sensor_id;sensor_type;location;lat;lon;timestamp;pressure;altitude;pressure_sealevel;temperature;humidity
28027;BME280;15344;52.342;-1.290;2023-07-28T00:01:25;99069.03;;;24.04;85.22
28027;BME280;15344;52.342;-1.290;2023-07-28T00:03:50;99063.56;;;23.91;86.47
28027;BME280;15344;52.342;-1.290;2023-07-28T00:06:15;99066.53;;;23.10;87.76
28027;BME280;15344;52.342;-1.290;2023-07-28T00:08:40;99064.29;;;23.95;85.07
28027;BME280;15344;52.342;-1.290;2023-07-28T00:11:09;99064.54;;;24.10;84.37
28027;BME280;15344;52.342;-1.290;2023-07-28T00:13:30;99067.58;;;24.26;83.24
28027;BME280;15344;52.342;-1.290;2023-07-28T00:15:56;99068.73;;;23.98;84.60
28027;BME280;15344;52.342;-1.290;2023-07-28T00:18:21;99074.34;;;23.98;84.21
28027;BME280;15344;52.342;-1.290;2023-07-28T00:20:47;99078.56;;;24.52;81.99
28027;BME280;15344;52.342;-1.290;2023-07-28T00:23:12;99076.53;;;24.05;82.86
28027;BME280;15344;52.342;-1.290;2023-07-28T00:25:37;99070.86;;;24.45;82.84
28027;BME280;15344;52.342;-1.290;2023-07-28T00:28:02;99070.25;;;23.66;85.06
28027;BME280;15344;52.342;-1.290;2023-07-28T00:30:27;99071.74;;;23.78;85.33
28027;BME280;15344;52.342;-1.290;2023-07-28T00:32:52;99069.13;;;23.99;84.22
28027;BME280;15344;52.342;-1.290;2023-07-28T00:35:17;99072.93;;;23.58;86.59
28027;BME280;15344;52.342;-1.290;2023-07-28T00:37:42;99070.36;;;23.84;86.15
28027;BME280;15344;52.342;-1.290;2023-07-28T00:40:09;99068.49;;;23.38;87.71
28027;BME280;15344;52.342;-1.290;2023-07-28T00:42:33;99070.30;;;23.69;87.39
28027;BME280;15344;52.342;-1.290;2023-07-28T00:44:58;99068.59;;;23.64;86.76
28027;BME280;15344;52.342;-1.290;2023-07-28T00:47:24;99067.24;;;23.36;86.28
28027;BME280;15344;52.342;-1.290;2023-07-28T00:49:49;99068.67;;;24.03;85.31
28027;BME280;15344;52.342;-1.290;2023-07-28T00:52:14;99074.50;;;23.63;86.91
28027;BME280;15344;52.342;-1.290;2023-07-28T00:54:39;99071.78;;;23.96;85.86
28027;BME280;15344;52.342;-1.290;2023-07-28T00:57:04;99074.60;;;23.66;86.09
28027;BME280;15344;52.342;-1.290;2023-07-28T00:59:29;99079.74;;;23.74;86.61
28027;BME280;15344;52.342;-1.290;2023-07-28T01:01:54;99078.04;;;23.18;88.72
28027;BME280;15344;52.342;-1.290;2023-07-28T01:04:19;99076.94;;;23.57;87.90
28027;BME280;15344;52.342;-1.290;2023-07-28T01:06:49;99080.67;;;23.31;88.82
28027;BME280;15344;52.342;-1.290;2023-07-28T01:09:12;99084.94;;;23.06;89.21
28027;BME280;15344;52.342;-1.290;2023-07-28T01:11:34;99077.51;;;23.63;87.23
28027;BME280;15344;52.342;-1.290;2023-07-28T01:13:59;99072.18;;;24.00;85.29
28027;BME280;15344;52.342;-1.290;2023-07-28T01:16:25;99074.35;;;23.14;89.56
28027;BME280;15344;52.342;-1.290;2023-07-28T01:18:50;99074.20;;;23.31;87.85
28027;BME280;15344;52.342;-1.290;2023-07-28T01:21:20;99069.72;;;23.54;88.48
28027;BME280;15344;52.342;-1.290;2023-07-28T01:23:46;99068.41;;;23.24;88.06
28027;BME280;15344;52.342;-1.290;2023-07-28T01:26:08;99067.46;;;23.37;86.77
28027;BME280;15344;52.342;-1.290;2023-07-28T01:28:30;99070.04;;;23.21;88.78
28027;BME280;15344;52.342;-1.290;2023-07-28T01:30:55;99070.11;;;23.22;90.53
28027;BME280;15344;52.342;-1.290;2023-07-28T01:33:20;99064.23;;;22.45;92.56
28027;BME280;15344;52.342;-1.290;2023-07-28T01:35:46;99065.56;;;22.68;91.74
28027;BME280;15344;52.342;-1.290;2023-07-28T01:38:11;99063.36;;;22.81;91.56
28027;BME280;15344;52.342;-1.290;2023-07-28T01:40:36;99061.21;;;23.32;88.88
28027;BME280;15344;52.342;-1.290;2023-07-28T01:43:01;99060.90;;;23.26;89.50
28027;BME280;15344;52.342;-1.290;2023-07-28T01:45:26;99065.55;;;23.44;87.83
28027;BME280;15344;52.342;-1.290;2023-07-28T01:47:52;99065.55;;;22.51;91.09
28027;BME280;15344;52.342;-1.290;2023-07-28T01:50:17;99064.46;;;23.19;88.61
28027;BME280;15344;52.342;-1.290;2023-07-28T01:52:42;99064.01;;;23.31;88.83
28027;BME280;15344;52.342;-1.290;2023-07-28T01:55:08;99062.30;;;23.85;85.39
28027;BME280;15344;52.342;-1.290;2023-07-28T01:57:33;99065.92;;;23.01;86.66
28027;BME280;15344;52.342;-1.290;2023-07-28T01:59:57;99066.38;;;23.36;86.76
28027;BME280;15344;52.342;-1.290;2023-07-28T02:02:22;99067.14;;;23.48;86.89
28027;BME280;15344;52.342;-1.290;2023-07-28T02:04:48;99067.64;;;23.37;87.33
28027;BME280;15344;52.342;-1.290;2023-07-28T02:07:13;99066.74;;;23.03;88.05
28027;BME280;15344;52.342;-1.290;2023-07-28T02:09:39;99065.50;;;23.10;89.38
28027;BME280;15344;52.342;-1.290;2023-07-28T02:12:05;99062.12;;;22.24;93.13
28027;BME280;15344;52.342;-1.290;2023-07-28T02:14:29;99060.35;;;23.08;89.27
28027;BME280;15344;52.342;-1.290;2023-07-28T02:16:54;99059.82;;;23.16;88.16
28027;BME280;15344;52.342;-1.290;2023-07-28T02:19:20;99059.15;;;23.16;88.23
28027;BME280;15344;52.342;-1.290;2023-07-28T02:21:45;99059.98;;;23.00;88.75
28027;BME280;15344;52.342;-1.290;2023-07-28T02:24:10;99063.24;;;22.67;91.08
28027;BME280;15344;52.342;-1.290;2023-07-28T02:26:35;99061.10;;;23.14;88.76
28027;BME280;15344;52.342;-1.290;2023-07-28T02:29:01;99061.11;;;23.30;87.81
28027;BME280;15344;52.342;-1.290;2023-07-28T02:31:26;99059.54;;;23.28;88.46
28027;BME280;15344;52.342;-1.290;2023-07-28T02:33:51;99064.20;;;22.94;89.58
28027;BME280;15344;52.342;-1.290;2023-07-28T02:36:16;99065.62;;;23.04;88.89
28027;BME280;15344;52.342;-1.290;2023-07-28T02:38:41;99073.08;;;22.59;90.42
28027;BME280;15344;52.342;-1.290;2023-07-28T02:41:06;99071.95;;;22.82;88.99
28027;BME280;15344;52.342;-1.290;2023-07-28T02:43:32;99069.70;;;23.18;88.59
28027;BME280;15344;52.342;-1.290;2023-07-28T02:45:57;99074.60;;;23.19;89.06
28027;BME280;15344;52.342;-1.290;2023-07-28T02:48:22;99075.67;;;23.08;88.90
28027;BME280;15344;52.342;-1.290;2023-07-28T02:50:48;99076.18;;;23.23;87.60
28027;BME280;15344;52.342;-1.290;2023-07-28T02:53:12;99076.88;;;23.35;86.63
28027;BME280;15344;52.342;-1.290;2023-07-28T02:55:41;99077.93;;;23.10;87.62
28027;BME280;15344;52.342;-1.290;2023-07-28T02:58:03;99081.06;;;22.77;89.29
28027;BME280;15344;52.342;-1.290;2023-07-28T03:00:28;99078.71;;;22.52;90.59
28027;BME280;15344;52.342;-1.290;2023-07-28T03:02:54;99074.94;;;22.50;91.00
28027;BME280;15344;52.342;-1.290;2023-07-28T03:05:19;99081.56;;;22.93;88.79
28027;BME280;15344;52.342;-1.290;2023-07-28T03:07:47;99080.59;;;22.52;92.08
28027;BME280;15344;52.342;-1.290;2023-07-28T03:10:10;99079.31;;;22.46;92.52
28027;BME280;15344;52.342;-1.290;2023-07-28T03:12:35;99077.85;;;21.59;94.86
28027;BME280;15344;52.342;-1.290;2023-07-28T03:15:00;99079.17;;;22.61;90.40
28027;BME280;15344;52.342;-1.290;2023-07-28T03:17:25;99076.69;;;21.76;94.08
28027;BME280;15344;52.342;-1.290;2023-07-28T03:19:50;99077.43;;;22.78;90.77
28027;BME280;15344;52.342;-1.290;2023-07-28T03:22:15;99078.80;;;22.25;94.00
28027;BME280;15344;52.342;-1.290;2023-07-28T03:24:40;99079.43;;;22.12;95.32
28027;BME280;15344;52.342;-1.290;2023-07-28T03:27:06;99082.76;;;22.02;94.37
28027;BME280;15344;52.342;-1.290;2023-07-28T03:29:30;99085.21;;;22.18;91.94
28027;BME280;15344;52.342;-1.290;2023-07-28T03:31:55;99087.82;;;22.84;91.64
28027;BME280;15344;52.342;-1.290;2023-07-28T03:34:20;99089.14;;;22.71;91.54
28027;BME280;15344;52.342;-1.290;2023-07-28T03:36:45;99090.76;;;22.25;92.54
28027;BME280;15344;52.342;-1.290;2023-07-28T03:39:11;99087.82;;;22.10;94.09
28027;BME280;15344;52.342;-1.290;2023-07-28T03:41:36;99086.07;;;21.91;95.48
28027;BME280;15344;52.342;-1.290;2023-07-28T03:44:01;99083.39;;;21.86;95.65
28027;BME280;15344;52.342;-1.290;2023-07-28T03:46:26;99086.62;;;21.87;95.44
28027;BME280;15344;52.342;-1.290;2023-07-28T03:48:51;99082.45;;;21.84;95.94
28027;BME280;15344;52.342;-1.290;2023-07-28T03:51:16;99080.18;;;22.05;95.81
28027;BME280;15344;52.342;-1.290;2023-07-28T03:53:41;99080.91;;;22.12;95.79
28027;BME280;15344;52.342;-1.290;2023-07-28T03:56:06;99083.80;;;22.58;93.32
28027;BME280;15344;52.342;-1.290;2023-07-28T03:58:31;99086.10;;;21.91;93.97
28027;BME280;15344;52.342;-1.290;2023-07-28T04:00:56;99088.32;;;22.20;92.05
28027;BME280;15344;52.342;-1.290;2023-07-28T04:03:22;99086.45;;;22.41;91.02
28027;BME280;15344;52.342;-1.290;2023-07-28T04:05:47;99089.55;;;22.42;91.47
28027;BME280;15344;52.342;-1.290;2023-07-28T04:08:11;99088.93;;;22.41;91.42
28027;BME280;15344;52.342;-1.290;2023-07-28T04:10:36;99093.17;;;22.54;90.64
28027;BME280;15344;52.342;-1.290;2023-07-28T04:13:02;99093.77;;;22.71;88.78
28027;BME280;15344;52.342;-1.290;2023-07-28T04:15:27;99098.66;;;22.97;88.08
28027;BME280;15344;52.342;-1.290;2023-07-28T04:17:52;99099.28;;;22.96;88.97
28027;BME280;15344;52.342;-1.290;2023-07-28T04:20:17;99097.82;;;22.43;90.32
28027;BME280;15344;52.342;-1.290;2023-07-28T04:22:42;99098.45;;;22.50;91.50
28027;BME280;15344;52.342;-1.290;2023-07-28T04:25:07;99097.89;;;22.45;91.57
28027;BME280;15344;52.342;-1.290;2023-07-28T04:27:32;99099.93;;;22.16;94.32
28027;BME280;15344;52.342;-1.290;2023-07-28T04:29:57;99103.62;;;22.54;91.78
28027;BME280;15344;52.342;-1.290;2023-07-28T04:32:22;99103.91;;;21.79;94.22
28027;BME280;15344;52.342;-1.290;2023-07-28T04:34:48;99104.49;;;22.46;92.77
28027;BME280;15344;52.342;-1.290;2023-07-28T04:37:13;99104.23;;;22.09;91.79
28027;BME280;15344;52.342;-1.290;2023-07-28T04:39:38;99103.79;;;21.97;93.08
28027;BME280;15344;52.342;-1.290;2023-07-28T04:42:03;99105.89;;;21.77;93.03
28027;BME280;15344;52.342;-1.290;2023-07-28T04:44:27;99110.74;;;21.26;96.54
28027;BME280;15344;52.342;-1.290;2023-07-28T04:46:53;99110.65;;;20.56;100.00
28027;BME280;15344;52.342;-1.290;2023-07-28T04:49:18;99110.67;;;20.82;99.97
28027;BME280;15344;52.342;-1.290;2023-07-28T04:51:43;99106.95;;;21.22;98.49
28027;BME280;15344;52.342;-1.290;2023-07-28T04:54:08;99106.83;;;21.72;96.88
28027;BME280;15344;52.342;-1.290;2023-07-28T04:56:33;99107.99;;;21.70;95.33
28027;BME280;15344;52.342;-1.290;2023-07-28T04:58:58;99108.11;;;21.85;93.86
28027;BME280;15344;52.342;-1.290;2023-07-28T05:01:23;99108.60;;;22.20;91.83
28027;BME280;15344;52.342;-1.290;2023-07-28T05:03:49;99107.61;;;21.79;94.25
28027;BME280;15344;52.342;-1.290;2023-07-28T05:06:14;99104.79;;;21.86;93.48
28027;BME280;15344;52.342;-1.290;2023-07-28T05:08:39;99107.54;;;21.60;94.49
28027;BME280;15344;52.342;-1.290;2023-07-28T05:11:04;99104.60;;;22.42;91.29
28027;BME280;15344;52.342;-1.290;2023-07-28T05:13:29;99105.44;;;22.53;91.36
28027;BME280;15344;52.342;-1.290;2023-07-28T05:15:54;99107.18;;;22.33;90.43
28027;BME280;15344;52.342;-1.290;2023-07-28T05:18:19;99109.85;;;21.90;91.13
28027;BME280;15344;52.342;-1.290;2023-07-28T05:20:45;99107.67;;;22.05;90.17
28027;BME280;15344;52.342;-1.290;2023-07-28T05:23:09;99106.48;;;22.55;90.77
28027;BME280;15344;52.342;-1.290;2023-07-28T05:25:34;99106.03;;;22.84;89.28
28027;BME280;15344;52.342;-1.290;2023-07-28T05:27:59;99103.76;;;22.44;89.30
28027;BME280;15344;52.342;-1.290;2023-07-28T05:30:24;99107.29;;;22.04;90.97
28027;BME280;15344;52.342;-1.290;2023-07-28T05:32:50;99110.89;;;22.08;92.31
28027;BME280;15344;52.342;-1.290;2023-07-28T05:35:15;99112.92;;;22.53;91.51
28027;BME280;15344;52.342;-1.290;2023-07-28T05:37:40;99116.68;;;22.16;91.90
28027;BME280;15344;52.342;-1.290;2023-07-28T05:40:06;99114.88;;;22.35;91.47
28027;BME280;15344;52.342;-1.290;2023-07-28T05:42:30;99114.99;;;22.33;91.11
28027;BME280;15344;52.342;-1.290;2023-07-28T05:44:55;99115.48;;;22.47;90.82
28027;BME280;15344;52.342;-1.290;2023-07-28T05:47:21;99115.90;;;22.25;91.53
28027;BME280;15344;52.342;-1.290;2023-07-28T05:49:46;99115.94;;;21.85;92.48
28027;BME280;15344;52.342;-1.290;2023-07-28T05:52:11;99118.42;;;21.89;94.10
28027;BME280;15344;52.342;-1.290;2023-07-28T05:54:36;99117.78;;;21.72;92.62
28027;BME280;15344;52.342;-1.290;2023-07-28T05:57:01;99117.02;;;22.49;91.12
28027;BME280;15344;52.342;-1.290;2023-07-28T05:59:27;99113.72;;;22.34;90.71
28027;BME280;15344;52.342;-1.290;2023-07-28T06:01:52;99113.40;;;22.74;88.96
28027;BME280;15344;52.342;-1.290;2023-07-28T06:04:17;99116.75;;;22.60;89.10
28027;BME280;15344;52.342;-1.290;2023-07-28T06:06:42;99117.02;;;22.48;87.50
28027;BME280;15344;52.342;-1.290;2023-07-28T06:09:07;99116.54;;;22.34;88.98
28027;BME280;15344;52.342;-1.290;2023-07-28T06:11:32;99111.06;;;22.17;89.29
28027;BME280;15344;52.342;-1.290;2023-07-28T06:13:57;99113.24;;;22.16;90.26
28027;BME280;15344;52.342;-1.290;2023-07-28T06:16:22;99118.04;;;22.46;88.21
28027;BME280;15344;52.342;-1.290;2023-07-28T06:18:48;99121.43;;;22.69;89.58
28027;BME280;15344;52.342;-1.290;2023-07-28T06:21:13;99124.60;;;22.38;87.24
28027;BME280;15344;52.342;-1.290;2023-07-28T06:23:37;99126.29;;;22.52;88.74
28027;BME280;15344;52.342;-1.290;2023-07-28T06:26:03;99124.46;;;22.29;90.00
28027;BME280;15344;52.342;-1.290;2023-07-28T06:28:28;99125.48;;;22.33;90.05
28027;BME280;15344;52.342;-1.290;2023-07-28T06:30:54;99127.77;;;22.33;90.59
28027;BME280;15344;52.342;-1.290;2023-07-28T06:33:18;99127.62;;;22.48;90.30
28027;BME280;15344;52.342;-1.290;2023-07-28T06:35:43;99132.96;;;22.52;88.79
28027;BME280;15344;52.342;-1.290;2023-07-28T06:38:08;99137.34;;;22.60;88.68
28027;BME280;15344;52.342;-1.290;2023-07-28T06:40:33;99140.10;;;22.04;91.78
28027;BME280;15344;52.342;-1.290;2023-07-28T06:42:58;99137.89;;;22.53;89.62
28027;BME280;15344;52.342;-1.290;2023-07-28T06:45:23;99137.72;;;22.02;89.94
28027;BME280;15344;52.342;-1.290;2023-07-28T06:47:48;99140.33;;;23.20;85.94
28027;BME280;15344;52.342;-1.290;2023-07-28T06:50:13;99139.24;;;22.81;85.60
28027;BME280;15344;52.342;-1.290;2023-07-28T06:52:38;99135.51;;;22.11;89.19
28027;BME280;15344;52.342;-1.290;2023-07-28T06:55:04;99138.43;;;22.16;88.03
28027;BME280;15344;52.342;-1.290;2023-07-28T06:57:28;99140.72;;;22.91;87.87
28027;BME280;15344;52.342;-1.290;2023-07-28T06:59:54;99144.57;;;22.91;85.59
28027;BME280;15344;52.342;-1.290;2023-07-28T07:02:19;99142.04;;;22.23;88.07
28027;BME280;15344;52.342;-1.290;2023-07-28T07:04:43;99136.64;;;22.97;85.55
28027;BME280;15344;52.342;-1.290;2023-07-28T07:07:09;99139.30;;;22.94;84.15
28027;BME280;15344;52.342;-1.290;2023-07-28T07:09:34;99143.07;;;23.34;83.31
28027;BME280;15344;52.342;-1.290;2023-07-28T07:11:59;99138.77;;;23.05;84.65
28027;BME280;15344;52.342;-1.290;2023-07-28T07:14:24;99142.21;;;23.45;81.85
28027;BME280;15344;52.342;-1.290;2023-07-28T07:16:49;99143.46;;;23.94;80.35
28027;BME280;15344;52.342;-1.290;2023-07-28T07:19:14;99150.04;;;23.30;82.46
28027;BME280;15344;52.342;-1.290;2023-07-28T07:21:39;99149.16;;;22.98;82.43
28027;BME280;15344;52.342;-1.290;2023-07-28T07:24:04;99153.34;;;23.33;80.00
28027;BME280;15344;52.342;-1.290;2023-07-28T07:26:29;99150.77;;;23.37;78.66
28027;BME280;15344;52.342;-1.290;2023-07-28T07:28:54;99158.00;;;23.54;78.17
28027;BME280;15344;52.342;-1.290;2023-07-28T07:31:19;99155.81;;;22.57;80.68
28027;BME280;15344;52.342;-1.290;2023-07-28T07:33:44;99158.34;;;21.69;84.97
28027;BME280;15344;52.342;-1.290;2023-07-28T07:36:12;99155.84;;;22.63;81.72
28027;BME280;15344;52.342;-1.290;2023-07-28T07:38:34;99158.28;;;22.81;80.08
28027;BME280;15344;52.342;-1.290;2023-07-28T07:40:59;99160.35;;;23.40;76.62
28027;BME280;15344;52.342;-1.290;2023-07-28T07:43:25;99162.34;;;23.39;76.90
28027;BME280;15344;52.342;-1.290;2023-07-28T07:45:49;99162.78;;;23.62;77.92
28027;BME280;15344;52.342;-1.290;2023-07-28T07:48:14;99163.79;;;22.93;80.25
28027;BME280;15344;52.342;-1.290;2023-07-28T07:50:39;99166.53;;;23.42;76.83
28027;BME280;15344;52.342;-1.290;2023-07-28T07:53:04;99166.64;;;22.37;80.63
28027;BME280;15344;52.342;-1.290;2023-07-28T07:55:29;99172.08;;;23.29;78.94
28027;BME280;15344;52.342;-1.290;2023-07-28T07:57:55;99172.40;;;23.48;79.83
28027;BME280;15344;52.342;-1.290;2023-07-28T08:00:20;99170.37;;;23.57;79.51
28027;BME280;15344;52.342;-1.290;2023-07-28T08:02:45;99166.80;;;23.29;82.34
28027;BME280;15344;52.342;-1.290;2023-07-28T08:05:10;99158.76;;;23.81;79.70
28027;BME280;15344;52.342;-1.290;2023-07-28T08:07:35;99157.50;;;23.34;81.13
28027;BME280;15344;52.342;-1.290;2023-07-28T08:09:59;99153.08;;;23.54;78.14
28027;BME280;15344;52.342;-1.290;2023-07-28T08:12:25;99151.81;;;23.81;77.85
28027;BME280;15344;52.342;-1.290;2023-07-28T08:14:50;99157.42;;;23.43;79.14
28027;BME280;15344;52.342;-1.290;2023-07-28T08:17:15;99158.01;;;24.16;76.69
28027;BME280;15344;52.342;-1.290;2023-07-28T08:19:40;99161.12;;;24.16;78.05
28027;BME280;15344;52.342;-1.290;2023-07-28T08:22:05;99160.85;;;23.94;77.40
28027;BME280;15344;52.342;-1.290;2023-07-28T08:24:30;99159.80;;;24.31;76.43
28027;BME280;15344;52.342;-1.290;2023-07-28T08:26:55;99165.41;;;24.07;75.83
28027;BME280;15344;52.342;-1.290;2023-07-28T08:29:20;99166.12;;;24.08;75.19
28027;BME280;15344;52.342;-1.290;2023-07-28T08:31:45;99166.29;;;23.14;77.31
28027;BME280;15344;52.342;-1.290;2023-07-28T08:34:10;99163.18;;;23.70;77.04
28027;BME280;15344;52.342;-1.290;2023-07-28T08:36:35;99163.66;;;23.55;77.01
28027;BME280;15344;52.342;-1.290;2023-07-28T08:39:00;99158.83;;;23.24;78.13
28027;BME280;15344;52.342;-1.290;2023-07-28T08:41:25;99163.10;;;22.86;79.47
28027;BME280;15344;52.342;-1.290;2023-07-28T08:43:50;99167.31;;;23.21;79.40
28027;BME280;15344;52.342;-1.290;2023-07-28T08:46:15;99171.40;;;23.48;77.41
28027;BME280;15344;52.342;-1.290;2023-07-28T08:48:40;99175.03;;;23.65;77.30
28027;BME280;15344;52.342;-1.290;2023-07-28T08:51:06;99174.58;;;22.43;79.92
28027;BME280;15344;52.342;-1.290;2023-07-28T08:53:31;99175.43;;;23.26;78.18
28027;BME280;15344;52.342;-1.290;2023-07-28T08:55:56;99174.20;;;22.89;79.37
28027;BME280;15344;52.342;-1.290;2023-07-28T08:58:22;99176.19;;;23.29;78.84
28027;BME280;15344;52.342;-1.290;2023-07-28T09:00:48;99177.71;;;23.71;77.80
28027;BME280;15344;52.342;-1.290;2023-07-28T09:03:12;99174.94;;;23.45;78.34
28027;BME280;15344;52.342;-1.290;2023-07-28T09:05:38;99173.08;;;23.03;77.52
28027;BME280;15344;52.342;-1.290;2023-07-28T09:08:03;99174.20;;;22.92;80.66
28027;BME280;15344;52.342;-1.290;2023-07-28T09:10:41;99174.89;;;23.19;78.77
28027;BME280;15344;52.342;-1.290;2023-07-28T09:12:54;99174.03;;;23.60;77.51
28027;BME280;15344;52.342;-1.290;2023-07-28T09:15:18;99171.75;;;23.44;77.04
28027;BME280;15344;52.342;-1.290;2023-07-28T09:17:44;99169.24;;;23.42;76.50
28027;BME280;15344;52.342;-1.290;2023-07-28T09:20:13;99167.82;;;24.37;74.06
28027;BME280;15344;52.342;-1.290;2023-07-28T09:22:33;99172.62;;;24.34;73.72
28027;BME280;15344;52.342;-1.290;2023-07-28T09:27:25;99175.61;;;24.55;69.01
28027;BME280;15344;52.342;-1.290;2023-07-28T09:29:51;99176.67;;;24.40;70.50
28027;BME280;15344;52.342;-1.290;2023-07-28T09:32:16;99178.25;;;24.21;72.21
28027;BME280;15344;52.342;-1.290;2023-07-28T09:34:42;99172.80;;;24.87;70.44
28027;BME280;15344;52.342;-1.290;2023-07-28T09:37:09;99172.76;;;25.36;70.51
28027;BME280;15344;52.342;-1.290;2023-07-28T09:39:34;99177.31;;;25.01;69.81
28027;BME280;15344;52.342;-1.290;2023-07-28T09:42:00;99182.58;;;25.76;67.54
28027;BME280;15344;52.342;-1.290;2023-07-28T09:44:25;99182.19;;;24.71;65.89
28027;BME280;15344;52.342;-1.290;2023-07-28T09:46:52;99187.28;;;25.06;67.67
28027;BME280;15344;52.342;-1.290;2023-07-28T09:49:21;99187.62;;;24.09;68.54
28027;BME280;15344;52.342;-1.290;2023-07-28T09:51:44;99190.62;;;23.92;71.42
28027;BME280;15344;52.342;-1.290;2023-07-28T09:54:12;99190.74;;;24.36;70.51
28027;BME280;15344;52.342;-1.290;2023-07-28T09:56:32;99194.10;;;23.65;73.18
28027;BME280;15344;52.342;-1.290;2023-07-28T09:58:59;99191.31;;;23.76;75.68
28027;BME280;15344;52.342;-1.290;2023-07-28T10:01:22;99183.01;;;24.53;73.77
28027;BME280;15344;52.342;-1.290;2023-07-28T10:03:47;99180.19;;;24.61;71.21
28027;BME280;15344;52.342;-1.290;2023-07-28T10:06:12;99186.35;;;24.34;72.94
28027;BME280;15344;52.342;-1.290;2023-07-28T10:08:37;99184.96;;;23.67;72.08
28027;BME280;15344;52.342;-1.290;2023-07-28T10:11:02;99192.65;;;24.07;68.20
28027;BME280;15344;52.342;-1.290;2023-07-28T10:13:28;99193.51;;;23.19;72.57
28027;BME280;15344;52.342;-1.290;2023-07-28T10:15:53;99193.57;;;23.19;73.46
28027;BME280;15344;52.342;-1.290;2023-07-28T10:18:20;99195.36;;;23.03;73.29
28027;BME280;15344;52.342;-1.290;2023-07-28T10:20:43;99190.66;;;22.53;77.10
28027;BME280;15344;52.342;-1.290;2023-07-28T10:23:12;99191.51;;;23.14;75.86
28027;BME280;15344;52.342;-1.290;2023-07-28T10:25:35;99195.36;;;24.01;75.54
28027;BME280;15344;52.342;-1.290;2023-07-28T10:27:58;99189.71;;;23.89;75.33
28027;BME280;15344;52.342;-1.290;2023-07-28T10:30:24;99188.44;;;23.00;76.90
28027;BME280;15344;52.342;-1.290;2023-07-28T10:32:49;99188.23;;;24.40;73.47
28027;BME280;15344;52.342;-1.290;2023-07-28T10:35:22;99190.87;;;24.13;72.92
28027;BME280;15344;52.342;-1.290;2023-07-28T10:37:40;99181.53;;;24.78;67.28
28027;BME280;15344;52.342;-1.290;2023-07-28T10:42:31;99177.20;;;24.52;65.88
28027;BME280;15344;52.342;-1.290;2023-07-28T10:44:57;99176.28;;;24.75;68.59
28027;BME280;15344;52.342;-1.290;2023-07-28T10:47:22;99175.37;;;24.37;68.43
28027;BME280;15344;52.342;-1.290;2023-07-28T10:49:48;99175.85;;;24.73;68.20
28027;BME280;15344;52.342;-1.290;2023-07-28T10:52:16;99173.04;;;24.96;69.41
28027;BME280;15344;52.342;-1.290;2023-07-28T10:54:42;99172.99;;;24.11;70.51
28027;BME280;15344;52.342;-1.290;2023-07-28T10:57:06;99168.08;;;24.48;69.26
28027;BME280;15344;52.342;-1.290;2023-07-28T10:59:32;99168.99;;;24.49;71.12
28027;BME280;15344;52.342;-1.290;2023-07-28T11:01:58;99173.09;;;23.88;74.18
28027;BME280;15344;52.342;-1.290;2023-07-28T11:04:24;99167.16;;;24.48;71.31
28027;BME280;15344;52.342;-1.290;2023-07-28T11:06:50;99173.86;;;24.96;68.18
28027;BME280;15344;52.342;-1.290;2023-07-28T11:09:17;99171.62;;;24.18;69.59
28027;BME280;15344;52.342;-1.290;2023-07-28T11:11:42;99174.78;;;24.50;69.35
28027;BME280;15344;52.342;-1.290;2023-07-28T11:14:08;99174.04;;;24.73;68.20
28027;BME280;15344;52.342;-1.290;2023-07-28T11:16:33;99177.32;;;24.80;69.76
28027;BME280;15344;52.342;-1.290;2023-07-28T11:19:01;99177.85;;;24.40;67.35
28027;BME280;15344;52.342;-1.290;2023-07-28T11:21:25;99183.22;;;24.41;68.09
28027;BME280;15344;52.342;-1.290;2023-07-28T11:23:51;99187.57;;;23.14;71.84
28027;BME280;15344;52.342;-1.290;2023-07-28T11:26:17;99191.54;;;23.55;70.70
28027;BME280;15344;52.342;-1.290;2023-07-28T11:28:42;99192.85;;;22.34;79.62
28027;BME280;15344;52.342;-1.290;2023-07-28T11:31:08;99191.80;;;22.92;77.08
28027;BME280;15344;52.342;-1.290;2023-07-28T11:33:33;99193.04;;;23.90;73.21
28027;BME280;15344;52.342;-1.290;2023-07-28T11:35:59;99195.13;;;24.21;72.34
28027;BME280;15344;52.342;-1.290;2023-07-28T11:38:26;99194.08;;;23.42;71.40
28027;BME280;15344;52.342;-1.290;2023-07-28T11:40:50;99193.03;;;23.97;71.29
28027;BME280;15344;52.342;-1.290;2023-07-28T11:43:17;99187.09;;;24.62;71.02
28027;BME280;15344;52.342;-1.290;2023-07-28T11:45:42;99181.34;;;24.10;70.26
28027;BME280;15344;52.342;-1.290;2023-07-28T11:48:08;99181.87;;;24.72;66.97
28027;BME280;15344;52.342;-1.290;2023-07-28T11:50:36;99180.20;;;24.67;64.11
28027;BME280;15344;52.342;-1.290;2023-07-28T11:53:00;99176.60;;;25.02;63.18
28027;BME280;15344;52.342;-1.290;2023-07-28T11:55:26;99176.52;;;24.96;65.87
28027;BME280;15344;52.342;-1.290;2023-07-28T11:57:52;99177.78;;;25.85;63.82
28027;BME280;15344;52.342;-1.290;2023-07-28T12:00:17;99175.11;;;26.37;65.17
28027;BME280;15344;52.342;-1.290;2023-07-28T12:02:44;99171.49;;;26.86;60.02
28027;BME280;15344;52.342;-1.290;2023-07-28T12:05:12;99172.85;;;27.12;58.11
28027;BME280;15344;52.342;-1.290;2023-07-28T12:07:35;99170.15;;;27.06;55.25
28027;BME280;15344;52.342;-1.290;2023-07-28T12:10:03;99165.60;;;27.47;59.68
28027;BME280;15344;52.342;-1.290;2023-07-28T12:12:28;99166.03;;;27.70;57.29
28027;BME280;15344;52.342;-1.290;2023-07-28T12:14:52;99169.79;;;27.80;52.32
28027;BME280;15344;52.342;-1.290;2023-07-28T12:17:19;99167.52;;;26.94;51.70
28027;BME280;15344;52.342;-1.290;2023-07-28T12:22:10;99159.56;;;26.75;53.41
28027;BME280;15344;52.342;-1.290;2023-07-28T12:24:35;99160.63;;;27.29;54.16
28027;BME280;15344;52.342;-1.290;2023-07-28T12:27:01;99163.42;;;27.89;53.96
28027;BME280;15344;52.342;-1.290;2023-07-28T12:29:27;99159.70;;;27.40;52.69
28027;BME280;15344;52.342;-1.290;2023-07-28T12:31:52;99164.20;;;26.51;53.95
28027;BME280;15344;52.342;-1.290;2023-07-28T12:34:18;99165.74;;;27.45;50.86
28027;BME280;15344;52.342;-1.290;2023-07-28T12:36:44;99168.82;;;26.99;52.95
28027;BME280;15344;52.342;-1.290;2023-07-28T12:39:10;99164.38;;;26.93;50.92
28027;BME280;15344;52.342;-1.290;2023-07-28T12:41:35;99168.52;;;27.28;52.38
28027;BME280;15344;52.342;-1.290;2023-07-28T12:44:02;99170.22;;;27.43;49.87
28027;BME280;15344;52.342;-1.290;2023-07-28T12:46:27;99165.79;;;26.58;51.93